sensor_id;sensor_type;location;lat;lon;timestamp;P1;durP1;ratioP1;P2;durP2;ratioP2
18013;SDS011;9132;47.946;10.394;2023-03-01T00:01:23;28.37;;;16.80;;
18013;SDS011;9132;47.946;10.394;2023-03-01T00:03:49;24.23;;;17.00;;
18013;SDS011;9132;47.946;10.394;2023-03-01T00:06:16;25.07;;;17.87;;
18013;SDS011;9132;47.946;10.394;2023-03-01T00:08:42;24.33;;;16.67;;
18013;SDS011;9132;47.946;10.394;2023-03-01T00:11:10;23.17;;;16.87;;
18013;SDS011;9132;47.946;10.394;2023-03-01T00:13:37;25.33;;;16.90;;
18013;SDS011;9132;47.946;10.394;2023-03-01T00:16:04;25.63;;;17.07;;
18013;SDS011;9132;47.946;10.394;2023-03-01T00:18:32;23.77;;;16.90;;
18013;SDS011;9132;47.946;10.394;2023-03-01T00:20:59;23.00;;;16.97;;
18013;SDS011;9132;47.946;10.394;2023-03-01T00:23:25;21.40;;;15.13;;
18013;SDS011;9132;47.946;10.394;2023-03-01T00:25:51;23.53;;;16.43;;
18013;SDS011;9132;47.946;10.394;2023-03-01T00:28:18;24.00;;;16.70;;
18013;SDS011;9132;47.946;10.394;2023-03-01T00:30:44;22.60;;;16.33;;
18013;SDS011;9132;47.946;10.394;2023-03-01T00:33:11;24.53;;;16.43;;
18013;SDS011;9132;47.946;10.394;2023-03-01T00:35:39;22.20;;;16.37;;
18013;SDS011;9132;47.946;10.394;2023-03-01T00:38:05;22.73;;;16.60;;
18013;SDS011;9132;47.946;10.394;2023-03-01T00:40:32;24.97;;;16.80;;
18013;SDS011;9132;47.946;10.394;2023-03-01T00:42:59;23.20;;;16.13;;
18013;SDS011;9132;47.946;10.394;2023-03-01T00:45:25;25.00;;;16.57;;
18013;SDS011;9132;47.946;10.394;2023-03-01T00:47:52;21.57;;;16.40;;
18013;SDS011;9132;47.946;10.394;2023-03-01T00:50:18;21.80;;;16.20;;
18013;SDS011;9132;47.946;10.394;2023-03-01T00:52:46;26.07;;;15.43;;
18013;SDS011;9132;47.946;10.394;2023-03-01T00:55:12;22.47;;;16.00;;
18013;SDS011;9132;47.946;10.394;2023-03-01T00:57:39;23.33;;;16.17;;
18013;SDS011;9132;47.946;10.394;2023-03-01T01:00:05;25.90;;;17.27;;
18013;SDS011;9132;47.946;10.394;2023-03-01T01:02:33;21.70;;;15.93;;
18013;SDS011;9132;47.946;10.394;2023-03-01T01:04:59;22.93;;;17.13;;
18013;SDS011;9132;47.946;10.394;2023-03-01T01:07:26;24.43;;;16.43;;
18013;SDS011;9132;47.946;10.394;2023-03-01T01:09:53;21.67;;;15.53;;
18013;SDS011;9132;47.946;10.394;2023-03-01T01:12:20;22.47;;;16.53;;
18013;SDS011;9132;47.946;10.394;2023-03-01T01:14:46;22.87;;;16.37;;
18013;SDS011;9132;47.946;10.394;2023-03-01T01:17:12;23.63;;;16.80;;
18013;SDS011;9132;47.946;10.394;2023-03-01T01:19:39;23.60;;;17.13;;
18013;SDS011;9132;47.946;10.394;2023-03-01T01:22:05;22.73;;;16.40;;
18013;SDS011;9132;47.946;10.394;2023-03-01T01:24:31;22.03;;;16.17;;
18013;SDS011;9132;47.946;10.394;2023-03-01T01:26:59;23.70;;;16.20;;
18013;SDS011;9132;47.946;10.394;2023-03-01T01:29:25;25.20;;;16.37;;
18013;SDS011;9132;47.946;10.394;2023-03-01T01:31:51;23.27;;;16.90;;
18013;SDS011;9132;47.946;10.394;2023-03-01T01:34:19;23.50;;;16.83;;
18013;SDS011;9132;47.946;10.394;2023-03-01T01:36:47;24.57;;;17.43;;
18013;SDS011;9132;47.946;10.394;2023-03-01T01:39:14;24.63;;;17.03;;
18013;SDS011;9132;47.946;10.394;2023-03-01T01:41:40;24.10;;;17.43;;
18013;SDS011;9132;47.946;10.394;2023-03-01T01:44:13;22.27;;;15.70;;
18013;SDS011;9132;47.946;10.394;2023-03-01T01:46:40;22.87;;;16.03;;
18013;SDS011;9132;47.946;10.394;2023-03-01T01:49:07;21.27;;;16.13;;
18013;SDS011;9132;47.946;10.394;2023-03-01T01:51:38;23.40;;;16.53;;
18013;SDS011;9132;47.946;10.394;2023-03-01T01:54:07;22.53;;;16.00;;
18013;SDS011;9132;47.946;10.394;2023-03-01T01:56:35;24.27;;;16.63;;
18013;SDS011;9132;47.946;10.394;2023-03-01T01:59:03;24.63;;;16.10;;
18013;SDS011;9132;47.946;10.394;2023-03-01T02:01:31;23.43;;;16.67;;
18013;SDS011;9132;47.946;10.394;2023-03-01T02:03:57;24.10;;;16.30;;
18013;SDS011;9132;47.946;10.394;2023-03-01T02:06:26;26.27;;;16.73;;
18013;SDS011;9132;47.946;10.394;2023-03-01T02:08:54;24.87;;;17.53;;
18013;SDS011;9132;47.946;10.394;2023-03-01T02:11:21;21.47;;;15.83;;
18013;SDS011;9132;47.946;10.394;2023-03-01T02:13:47;23.60;;;16.07;;
18013;SDS011;9132;47.946;10.394;2023-03-01T02:16:14;21.00;;;15.80;;
18013;SDS011;9132;47.946;10.394;2023-03-01T02:18:43;21.90;;;16.20;;
18013;SDS011;9132;47.946;10.394;2023-03-01T02:21:13;22.27;;;16.03;;
18013;SDS011;9132;47.946;10.394;2023-03-01T02:23:42;22.77;;;16.47;;
18013;SDS011;9132;47.946;10.394;2023-03-01T02:26:11;23.77;;;16.20;;
18013;SDS011;9132;47.946;10.394;2023-03-01T02:28:42;20.50;;;15.50;;
18013;SDS011;9132;47.946;10.394;2023-03-01T02:31:09;22.80;;;16.20;;
18013;SDS011;9132;47.946;10.394;2023-03-01T02:33:53;22.67;;;15.17;;
18013;SDS011;9132;47.946;10.394;2023-03-01T02:36:21;22.73;;;15.83;;
18013;SDS011;9132;47.946;10.394;2023-03-01T02:38:50;24.77;;;17.37;;
18013;SDS011;9132;47.946;10.394;2023-03-01T02:41:17;24.57;;;16.80;;
18013;SDS011;9132;47.946;10.394;2023-03-01T02:43:46;26.40;;;17.17;;
18013;SDS011;9132;47.946;10.394;2023-03-01T02:46:14;22.13;;;15.93;;
18013;SDS011;9132;47.946;10.394;2023-03-01T02:48:41;23.73;;;16.80;;
18013;SDS011;9132;47.946;10.394;2023-03-01T02:51:10;24.27;;;16.70;;
18013;SDS011;9132;47.946;10.394;2023-03-01T02:53:41;24.97;;;17.10;;
18013;SDS011;9132;47.946;10.394;2023-03-01T02:56:11;24.13;;;17.20;;
18013;SDS011;9132;47.946;10.394;2023-03-01T02:58:39;22.77;;;16.33;;
18013;SDS011;9132;47.946;10.394;2023-03-01T03:01:11;24.13;;;17.53;;
18013;SDS011;9132;47.946;10.394;2023-03-01T03:03:40;23.27;;;16.37;;
18013;SDS011;9132;47.946;10.394;2023-03-01T03:06:06;24.77;;;17.37;;
18013;SDS011;9132;47.946;10.394;2023-03-01T03:08:33;25.57;;;16.73;;
18013;SDS011;9132;47.946;10.394;2023-03-01T03:10:59;24.07;;;16.63;;
18013;SDS011;9132;47.946;10.394;2023-03-01T03:13:26;22.90;;;17.13;;
18013;SDS011;9132;47.946;10.394;2023-03-01T03:15:53;22.80;;;17.10;;
18013;SDS011;9132;47.946;10.394;2023-03-01T03:18:21;22.80;;;16.33;;
18013;SDS011;9132;47.946;10.394;2023-03-01T03:20:50;24.07;;;16.67;;
18013;SDS011;9132;47.946;10.394;2023-03-01T03:23:18;21.87;;;16.70;;
18013;SDS011;9132;47.946;10.394;2023-03-01T03:25:47;23.17;;;16.67;;
18013;SDS011;9132;47.946;10.394;2023-03-01T03:28:13;22.67;;;17.10;;
18013;SDS011;9132;47.946;10.394;2023-03-01T03:30:41;26.30;;;17.27;;
18013;SDS011;9132;47.946;10.394;2023-03-01T03:33:08;25.07;;;17.67;;
18013;SDS011;9132;47.946;10.394;2023-03-01T03:35:37;20.93;;;15.90;;
18013;SDS011;9132;47.946;10.394;2023-03-01T03:38:05;24.43;;;16.60;;
18013;SDS011;9132;47.946;10.394;2023-03-01T03:40:35;25.20;;;16.57;;
18013;SDS011;9132;47.946;10.394;2023-03-01T03:43:01;27.50;;;17.67;;
18013;SDS011;9132;47.946;10.394;2023-03-01T03:45:28;23.83;;;17.13;;
18013;SDS011;9132;47.946;10.394;2023-03-01T03:47:54;25.00;;;16.63;;
18013;SDS011;9132;47.946;10.394;2023-03-01T03:50:20;26.60;;;17.40;;
18013;SDS011;9132;47.946;10.394;2023-03-01T03:52:48;24.40;;;16.93;;
18013;SDS011;9132;47.946;10.394;2023-03-01T03:55:14;22.67;;;15.97;;
18013;SDS011;9132;47.946;10.394;2023-03-01T03:57:44;23.00;;;16.90;;
18013;SDS011;9132;47.946;10.394;2023-03-01T04:00:16;26.50;;;17.87;;
18013;SDS011;9132;47.946;10.394;2023-03-01T04:02:43;23.63;;;16.67;;
18013;SDS011;9132;47.946;10.394;2023-03-01T04:05:10;23.97;;;17.07;;
18013;SDS011;9132;47.946;10.394;2023-03-01T04:07:37;22.30;;;16.97;;
18013;SDS011;9132;47.946;10.394;2023-03-01T04:10:06;22.30;;;16.60;;
18013;SDS011;9132;47.946;10.394;2023-03-01T04:12:33;23.30;;;16.67;;
18013;SDS011;9132;47.946;10.394;2023-03-01T04:15:00;24.70;;;17.40;;
18013;SDS011;9132;47.946;10.394;2023-03-01T04:17:26;22.90;;;16.10;;
18013;SDS011;9132;47.946;10.394;2023-03-01T04:19:52;23.57;;;16.73;;
18013;SDS011;9132;47.946;10.394;2023-03-01T04:22:19;22.57;;;17.07;;
18013;SDS011;9132;47.946;10.394;2023-03-01T04:24:45;24.93;;;17.33;;
18013;SDS011;9132;47.946;10.394;2023-03-01T04:27:13;25.47;;;17.70;;
18013;SDS011;9132;47.946;10.394;2023-03-01T04:29:39;25.17;;;16.87;;
18013;SDS011;9132;47.946;10.394;2023-03-01T04:32:05;24.17;;;16.57;;
18013;SDS011;9132;47.946;10.394;2023-03-01T04:34:31;23.40;;;16.07;;
18013;SDS011;9132;47.946;10.394;2023-03-01T04:36:58;26.57;;;17.20;;
18013;SDS011;9132;47.946;10.394;2023-03-01T04:39:24;23.90;;;16.13;;
18013;SDS011;9132;47.946;10.394;2023-03-01T04:41:50;26.33;;;18.23;;
18013;SDS011;9132;47.946;10.394;2023-03-01T04:44:18;24.67;;;16.40;;
18013;SDS011;9132;47.946;10.394;2023-03-01T04:46:45;24.23;;;16.97;;
18013;SDS011;9132;47.946;10.394;2023-03-01T04:49:11;25.03;;;17.33;;
18013;SDS011;9132;47.946;10.394;2023-03-01T04:51:37;24.03;;;16.60;;
18013;SDS011;9132;47.946;10.394;2023-03-01T04:54:04;25.13;;;17.47;;
18013;SDS011;9132;47.946;10.394;2023-03-01T04:56:33;25.47;;;17.50;;
18013;SDS011;9132;47.946;10.394;2023-03-01T04:58:59;24.53;;;16.60;;
18013;SDS011;9132;47.946;10.394;2023-03-01T05:01:31;30.33;;;18.17;;
18013;SDS011;9132;47.946;10.394;2023-03-01T05:03:57;26.10;;;18.30;;
18013;SDS011;9132;47.946;10.394;2023-03-01T05:06:27;25.40;;;17.60;;
18013;SDS011;9132;47.946;10.394;2023-03-01T05:08:54;24.87;;;17.20;;
18013;SDS011;9132;47.946;10.394;2023-03-01T05:11:20;26.23;;;17.60;;
18013;SDS011;9132;47.946;10.394;2023-03-01T05:13:47;25.07;;;16.63;;
18013;SDS011;9132;47.946;10.394;2023-03-01T05:16:15;24.13;;;16.50;;
18013;SDS011;9132;47.946;10.394;2023-03-01T05:18:43;26.10;;;18.27;;
18013;SDS011;9132;47.946;10.394;2023-03-01T05:21:10;27.83;;;22.88;;
18013;SDS011;9132;47.946;10.394;2023-03-01T05:23:37;24.03;;;18.20;;
18013;SDS011;9132;47.946;10.394;2023-03-01T05:26:04;24.13;;;17.63;;
18013;SDS011;9132;47.946;10.394;2023-03-01T05:28:31;26.17;;;18.47;;
18013;SDS011;9132;47.946;10.394;2023-03-01T05:30:57;24.90;;;17.00;;
18013;SDS011;9132;47.946;10.394;2023-03-01T05:33:24;27.45;;;18.80;;
18013;SDS011;9132;47.946;10.394;2023-03-01T05:35:52;25.97;;;18.07;;
18013;SDS011;9132;47.946;10.394;2023-03-01T05:38:18;24.27;;;16.90;;
18013;SDS011;9132;47.946;10.394;2023-03-01T05:40:46;23.70;;;16.43;;
18013;SDS011;9132;47.946;10.394;2023-03-01T05:43:13;23.30;;;16.90;;
18013;SDS011;9132;47.946;10.394;2023-03-01T05:45:39;26.03;;;16.70;;
18013;SDS011;9132;47.946;10.394;2023-03-01T05:48:06;23.87;;;16.67;;
18013;SDS011;9132;47.946;10.394;2023-03-01T05:50:33;25.60;;;16.47;;
18013;SDS011;9132;47.946;10.394;2023-03-01T05:53:02;23.90;;;17.20;;
18013;SDS011;9132;47.946;10.394;2023-03-01T05:55:30;25.83;;;17.23;;
18013;SDS011;9132;47.946;10.394;2023-03-01T05:57:57;25.17;;;16.97;;
18013;SDS011;9132;47.946;10.394;2023-03-01T06:00:24;24.73;;;18.33;;
18013;SDS011;9132;47.946;10.394;2023-03-01T06:02:50;23.70;;;17.67;;
18013;SDS011;9132;47.946;10.394;2023-03-01T06:05:17;27.07;;;17.73;;
18013;SDS011;9132;47.946;10.394;2023-03-01T06:07:43;27.30;;;17.97;;
18013;SDS011;9132;47.946;10.394;2023-03-01T06:10:12;30.00;;;20.77;;
18013;SDS011;9132;47.946;10.394;2023-03-01T06:12:39;43.17;;;28.93;;
18013;SDS011;9132;47.946;10.394;2023-03-01T06:15:07;32.67;;;22.67;;
18013;SDS011;9132;47.946;10.394;2023-03-01T06:17:35;32.53;;;22.50;;
18013;SDS011;9132;47.946;10.394;2023-03-01T06:20:02;31.97;;;22.10;;
18013;SDS011;9132;47.946;10.394;2023-03-01T06:22:29;28.47;;;19.77;;
18013;SDS011;9132;47.946;10.394;2023-03-01T06:24:55;28.13;;;20.20;;
18013;SDS011;9132;47.946;10.394;2023-03-01T06:27:23;29.13;;;19.87;;
18013;SDS011;9132;47.946;10.394;2023-03-01T06:29:49;28.77;;;21.57;;
18013;SDS011;9132;47.946;10.394;2023-03-01T06:32:15;26.73;;;19.23;;
18013;SDS011;9132;47.946;10.394;2023-03-01T06:34:42;25.87;;;18.50;;
18013;SDS011;9132;47.946;10.394;2023-03-01T06:37:08;23.73;;;18.03;;
18013;SDS011;9132;47.946;10.394;2023-03-01T06:39:34;26.50;;;18.13;;
18013;SDS011;9132;47.946;10.394;2023-03-01T06:42:01;26.73;;;17.80;;
18013;SDS011;9132;47.946;10.394;2023-03-01T06:44:29;28.17;;;18.13;;
18013;SDS011;9132;47.946;10.394;2023-03-01T06:46:56;25.53;;;18.13;;
18013;SDS011;9132;47.946;10.394;2023-03-01T06:49:22;27.93;;;18.67;;
18013;SDS011;9132;47.946;10.394;2023-03-01T06:51:49;25.90;;;17.80;;
18013;SDS011;9132;47.946;10.394;2023-03-01T06:54:15;26.57;;;17.60;;
18013;SDS011;9132;47.946;10.394;2023-03-01T06:56:42;24.73;;;17.03;;
18013;SDS011;9132;47.946;10.394;2023-03-01T06:59:09;25.13;;;16.83;;
18013;SDS011;9132;47.946;10.394;2023-03-01T07:01:36;26.63;;;17.43;;
18013;SDS011;9132;47.946;10.394;2023-03-01T07:04:03;25.37;;;17.60;;
18013;SDS011;9132;47.946;10.394;2023-03-01T07:06:30;25.77;;;17.50;;
18013;SDS011;9132;47.946;10.394;2023-03-01T07:08:56;25.67;;;17.67;;
18013;SDS011;9132;47.946;10.394;2023-03-01T07:11:22;24.77;;;18.50;;
18013;SDS011;9132;47.946;10.394;2023-03-01T07:13:49;27.37;;;18.87;;
18013;SDS011;9132;47.946;10.394;2023-03-01T07:16:15;27.20;;;18.17;;
18013;SDS011;9132;47.946;10.394;2023-03-01T07:18:43;24.60;;;17.50;;
18013;SDS011;9132;47.946;10.394;2023-03-01T07:21:11;24.80;;;17.50;;
18013;SDS011;9132;47.946;10.394;2023-03-01T07:23:38;27.03;;;18.73;;
18013;SDS011;9132;47.946;10.394;2023-03-01T07:26:04;23.43;;;17.10;;
18013;SDS011;9132;47.946;10.394;2023-03-01T07:28:31;22.87;;;17.33;;
18013;SDS011;9132;47.946;10.394;2023-03-01T07:31:01;26.67;;;17.63;;
18013;SDS011;9132;47.946;10.394;2023-03-01T07:33:27;25.07;;;18.10;;
18013;SDS011;9132;47.946;10.394;2023-03-01T07:35:58;27.67;;;17.97;;
18013;SDS011;9132;47.946;10.394;2023-03-01T07:38:25;24.27;;;17.53;;
18013;SDS011;9132;47.946;10.394;2023-03-01T07:40:51;24.60;;;18.77;;
18013;SDS011;9132;47.946;10.394;2023-03-01T07:43:18;23.87;;;17.77;;
18013;SDS011;9132;47.946;10.394;2023-03-01T07:45:45;22.17;;;16.50;;
18013;SDS011;9132;47.946;10.394;2023-03-01T07:48:11;22.67;;;16.70;;
18013;SDS011;9132;47.946;10.394;2023-03-01T07:50:38;25.07;;;17.33;;
18013;SDS011;9132;47.946;10.394;2023-03-01T07:53:05;24.43;;;17.53;;
18013;SDS011;9132;47.946;10.394;2023-03-01T07:55:32;25.93;;;16.90;;
18013;SDS011;9132;47.946;10.394;2023-03-01T07:57:58;23.93;;;16.87;;
18013;SDS011;9132;47.946;10.394;2023-03-01T08:00:24;22.23;;;16.40;;
18013;SDS011;9132;47.946;10.394;2023-03-01T08:02:51;27.27;;;17.63;;
18013;SDS011;9132;47.946;10.394;2023-03-01T08:05:17;24.87;;;16.97;;
18013;SDS011;9132;47.946;10.394;2023-03-01T08:07:43;24.03;;;17.70;;
18013;SDS011;9132;47.946;10.394;2023-03-01T08:10:11;26.90;;;18.40;;
18013;SDS011;9132;47.946;10.394;2023-03-01T08:12:38;25.40;;;17.57;;
18013;SDS011;9132;47.946;10.394;2023-03-01T08:15:04;24.93;;;18.40;;
18013;SDS011;9132;47.946;10.394;2023-03-01T08:17:31;24.40;;;17.37;;
18013;SDS011;9132;47.946;10.394;2023-03-01T08:19:57;25.77;;;17.57;;
18013;SDS011;9132;47.946;10.394;2023-03-01T08:22:23;27.27;;;18.63;;
18013;SDS011;9132;47.946;10.394;2023-03-01T08:24:50;26.67;;;18.30;;
18013;SDS011;9132;47.946;10.394;2023-03-01T08:27:17;28.07;;;18.30;;
18013;SDS011;9132;47.946;10.394;2023-03-01T08:29:44;27.50;;;18.40;;
18013;SDS011;9132;47.946;10.394;2023-03-01T08:32:10;31.10;;;20.33;;
18013;SDS011;9132;47.946;10.394;2023-03-01T08:34:36;24.97;;;18.20;;
18013;SDS011;9132;47.946;10.394;2023-03-01T08:37:03;27.00;;;18.10;;
18013;SDS011;9132;47.946;10.394;2023-03-01T08:39:29;24.63;;;17.33;;
18013;SDS011;9132;47.946;10.394;2023-03-01T08:41:55;27.00;;;18.00;;
18013;SDS011;9132;47.946;10.394;2023-03-01T08:44:24;24.27;;;17.63;;
18013;SDS011;9132;47.946;10.394;2023-03-01T08:46:50;24.93;;;17.43;;
18013;SDS011;9132;47.946;10.394;2023-03-01T08:49:18;26.43;;;18.83;;
18013;SDS011;9132;47.946;10.394;2023-03-01T08:51:45;28.13;;;17.80;;
18013;SDS011;9132;47.946;10.394;2023-03-01T08:54:12;23.37;;;17.03;;
18013;SDS011;9132;47.946;10.394;2023-03-01T08:56:39;25.20;;;18.13;;
18013;SDS011;9132;47.946;10.394;2023-03-01T08:59:06;25.17;;;18.20;;
18013;SDS011;9132;47.946;10.394;2023-03-01T09:01:34;23.80;;;17.63;;
18013;SDS011;9132;47.946;10.394;2023-03-01T09:04:02;26.20;;;17.47;;
18013;SDS011;9132;47.946;10.394;2023-03-01T09:06:29;26.43;;;17.87;;
18013;SDS011;9132;47.946;10.394;2023-03-01T09:08:56;26.63;;;17.80;;
18013;SDS011;9132;47.946;10.394;2023-03-01T09:11:23;26.47;;;18.00;;
18013;SDS011;9132;47.946;10.394;2023-03-01T09:13:49;24.97;;;18.17;;
18013;SDS011;9132;47.946;10.394;2023-03-01T09:16:16;27.33;;;18.93;;
18013;SDS011;9132;47.946;10.394;2023-03-01T09:18:44;26.33;;;18.90;;
18013;SDS011;9132;47.946;10.394;2023-03-01T09:21:11;54.93;;;30.93;;
18013;SDS011;9132;47.946;10.394;2023-03-01T09:23:38;50.83;;;30.57;;
18013;SDS011;9132;47.946;10.394;2023-03-01T09:26:05;40.10;;;25.83;;
18013;SDS011;9132;47.946;10.394;2023-03-01T09:28:31;30.70;;;19.50;;
18013;SDS011;9132;47.946;10.394;2023-03-01T09:30:58;29.10;;;19.53;;
18013;SDS011;9132;47.946;10.394;2023-03-01T09:33:24;27.07;;;18.53;;
18013;SDS011;9132;47.946;10.394;2023-03-01T09:35:56;23.73;;;17.77;;
18013;SDS011;9132;47.946;10.394;2023-03-01T09:38:23;24.43;;;15.97;;
18013;SDS011;9132;47.946;10.394;2023-03-01T09:40:49;25.33;;;16.53;;
18013;SDS011;9132;47.946;10.394;2023-03-01T09:43:18;21.57;;;16.17;;
18013;SDS011;9132;47.946;10.394;2023-03-01T09:45:45;24.13;;;16.97;;
18013;SDS011;9132;47.946;10.394;2023-03-01T09:48:13;21.97;;;15.33;;
18013;SDS011;9132;47.946;10.394;2023-03-01T09:50:42;25.20;;;14.87;;
18013;SDS011;9132;47.946;10.394;2023-03-01T09:53:13;22.17;;;15.70;;
18013;SDS011;9132;47.946;10.394;2023-03-01T09:55:42;23.43;;;15.47;;
18013;SDS011;9132;47.946;10.394;2023-03-01T09:58:18;22.27;;;15.33;;
18013;SDS011;9132;47.946;10.394;2023-03-01T10:00:51;20.17;;;14.13;;
18013;SDS011;9132;47.946;10.394;2023-03-01T10:03:17;20.13;;;14.90;;
18013;SDS011;9132;47.946;10.394;2023-03-01T10:05:54;21.77;;;14.13;;
18013;SDS011;9132;47.946;10.394;2023-03-01T10:08:31;23.43;;;15.33;;
18013;SDS011;9132;47.946;10.394;2023-03-01T10:11:01;20.60;;;14.57;;
18013;SDS011;9132;47.946;10.394;2023-03-01T10:13:29;22.13;;;14.90;;
18013;SDS011;9132;47.946;10.394;2023-03-01T10:15:59;21.70;;;14.10;;
18013;SDS011;9132;47.946;10.394;2023-03-01T10:18:27;21.83;;;14.57;;
18013;SDS011;9132;47.946;10.394;2023-03-01T10:20:55;21.43;;;13.97;;
18013;SDS011;9132;47.946;10.394;2023-03-01T10:23:23;20.17;;;14.27;;
18013;SDS011;9132;47.946;10.394;2023-03-01T10:25:55;19.90;;;14.43;;
18013;SDS011;9132;47.946;10.394;2023-03-01T10:28:25;23.53;;;15.00;;
18013;SDS011;9132;47.946;10.394;2023-03-01T10:30:51;23.27;;;15.93;;
18013;SDS011;9132;47.946;10.394;2023-03-01T10:33:19;20.63;;;14.60;;
18013;SDS011;9132;47.946;10.394;2023-03-01T10:35:47;21.87;;;14.87;;
18013;SDS011;9132;47.946;10.394;2023-03-01T10:38:13;24.57;;;15.83;;
18013;SDS011;9132;47.946;10.394;2023-03-01T10:40:49;21.37;;;15.90;;
18013;SDS011;9132;47.946;10.394;2023-03-01T10:43:17;23.00;;;16.00;;
18013;SDS011;9132;47.946;10.394;2023-03-01T10:45:44;21.87;;;15.17;;
18013;SDS011;9132;47.946;10.394;2023-03-01T10:48:12;26.30;;;15.37;;
18013;SDS011;9132;47.946;10.394;2023-03-01T10:50:39;20.67;;;15.07;;
18013;SDS011;9132;47.946;10.394;2023-03-01T10:53:08;23.70;;;16.13;;
18013;SDS011;9132;47.946;10.394;2023-03-01T10:55:42;22.73;;;15.40;;
18013;SDS011;9132;47.946;10.394;2023-03-01T10:58:16;20.67;;;15.00;;
18013;SDS011;9132;47.946;10.394;2023-03-01T11:00:49;21.80;;;15.57;;
18013;SDS011;9132;47.946;10.394;2023-03-01T11:03:16;20.10;;;15.47;;
18013;SDS011;9132;47.946;10.394;2023-03-01T11:05:50;23.77;;;16.07;;
18013;SDS011;9132;47.946;10.394;2023-03-01T11:08:26;29.50;;;16.13;;
18013;SDS011;9132;47.946;10.394;2023-03-01T11:11:01;22.83;;;16.23;;
18013;SDS011;9132;47.946;10.394;2023-03-01T11:13:29;22.47;;;16.37;;
18013;SDS011;9132;47.946;10.394;2023-03-01T11:16:00;20.73;;;14.30;;
18013;SDS011;9132;47.946;10.394;2023-03-01T11:18:26;19.53;;;14.57;;
18013;SDS011;9132;47.946;10.394;2023-03-01T11:20:55;19.43;;;14.90;;
18013;SDS011;9132;47.946;10.394;2023-03-01T11:23:21;23.00;;;15.63;;
18013;SDS011;9132;47.946;10.394;2023-03-01T11:25:49;24.17;;;16.83;;
18013;SDS011;9132;47.946;10.394;2023-03-01T11:28:17;20.37;;;14.83;;
18013;SDS011;9132;47.946;10.394;2023-03-01T11:30:46;21.20;;;15.73;;
18013;SDS011;9132;47.946;10.394;2023-03-01T11:33:17;20.97;;;15.57;;
18013;SDS011;9132;47.946;10.394;2023-03-01T11:35:47;21.90;;;15.27;;
18013;SDS011;9132;47.946;10.394;2023-03-01T11:38:17;23.00;;;15.97;;
18013;SDS011;9132;47.946;10.394;2023-03-01T11:40:46;20.27;;;14.87;;
18013;SDS011;9132;47.946;10.394;2023-03-01T11:43:15;20.67;;;15.37;;
18013;SDS011;9132;47.946;10.394;2023-03-01T11:45:47;22.47;;;15.50;;
18013;SDS011;9132;47.946;10.394;2023-03-01T11:48:27;21.95;;;19.33;;
18013;SDS011;9132;47.946;10.394;2023-03-01T11:50:55;22.15;;;19.45;;
18013;SDS011;9132;47.946;10.394;2023-03-01T11:53:28;24.60;;;17.30;;
18013;SDS011;9132;47.946;10.394;2023-03-01T11:55:59;24.23;;;16.93;;
18013;SDS011;9132;47.946;10.394;2023-03-01T11:58:31;29.60;;;15.90;;
18013;SDS011;9132;47.946;10.394;2023-03-01T12:01:13;24.87;;;17.37;;
18013;SDS011;9132;47.946;10.394;2023-03-01T12:03:50;21.43;;;16.10;;
18013;SDS011;9132;47.946;10.394;2023-03-01T12:06:24;23.17;;;16.80;;
18013;SDS011;9132;47.946;10.394;2023-03-01T12:08:56;24.63;;;16.33;;
18013;SDS011;9132;47.946;10.394;2023-03-01T12:11:28;21.93;;;15.87;;
18013;SDS011;9132;47.946;10.394;2023-03-01T12:14:04;22.63;;;15.93;;
18013;SDS011;9132;47.946;10.394;2023-03-01T12:16:40;21.47;;;15.77;;
18013;SDS011;9132;47.946;10.394;2023-03-01T12:19:17;22.47;;;15.70;;
18013;SDS011;9132;47.946;10.394;2023-03-01T12:21:51;26.70;;;16.77;;
18013;SDS011;9132;47.946;10.394;2023-03-01T12:24:28;26.07;;;17.20;;
18013;SDS011;9132;47.946;10.394;2023-03-01T12:27:03;32.37;;;21.20;;
18013;SDS011;9132;47.946;10.394;2023-03-01T12:29:31;34.20;;;20.97;;
18013;SDS011;9132;47.946;10.394;2023-03-01T12:32:02;25.60;;;16.63;;
18013;SDS011;9132;47.946;10.394;2023-03-01T12:34:37;21.17;;;16.17;;
18013;SDS011;9132;47.946;10.394;2023-03-01T12:37:11;23.87;;;16.13;;
18013;SDS011;9132;47.946;10.394;2023-03-01T12:39:42;25.27;;;17.67;;
18013;SDS011;9132;47.946;10.394;2023-03-01T12:42:16;24.10;;;17.40;;
18013;SDS011;9132;47.946;10.394;2023-03-01T12:44:51;22.67;;;16.10;;
18013;SDS011;9132;47.946;10.394;2023-03-01T12:47:27;22.10;;;16.63;;
18013;SDS011;9132;47.946;10.394;2023-03-01T12:49:57;23.83;;;15.43;;
18013;SDS011;9132;47.946;10.394;2023-03-01T12:52:28;23.33;;;15.83;;
18013;SDS011;9132;47.946;10.394;2023-03-01T12:54:57;21.10;;;16.13;;
18013;SDS011;9132;47.946;10.394;2023-03-01T12:57:29;21.07;;;16.50;;
18013;SDS011;9132;47.946;10.394;2023-03-01T13:00:03;24.10;;;17.03;;
18013;SDS011;9132;47.946;10.394;2023-03-01T13:02:35;21.83;;;15.23;;
18013;SDS011;9132;47.946;10.394;2023-03-01T13:05:13;26.07;;;16.43;;
18013;SDS011;9132;47.946;10.394;2023-03-01T13:07:48;21.90;;;15.97;;
18013;SDS011;9132;47.946;10.394;2023-03-01T13:10:19;23.03;;;16.40;;
18013;SDS011;9132;47.946;10.394;2023-03-01T13:12:49;21.60;;;16.63;;
18013;SDS011;9132;47.946;10.394;2023-03-01T13:15:24;22.90;;;16.87;;
18013;SDS011;9132;47.946;10.394;2023-03-01T13:17:51;25.07;;;16.20;;
18013;SDS011;9132;47.946;10.394;2023-03-01T13:20:20;22.43;;;16.27;;
18013;SDS011;9132;47.946;10.394;2023-03-01T13:22:47;24.80;;;17.03;;
18013;SDS011;9132;47.946;10.394;2023-03-01T13:25:15;25.00;;;16.97;;
18013;SDS011;9132;47.946;10.394;2023-03-01T13:27:42;25.00;;;17.07;;
18013;SDS011;9132;47.946;10.394;2023-03-01T13:33:10;24.80;;;17.93;;
18013;SDS011;9132;47.946;10.394;2023-03-01T13:35:59;27.87;;;18.57;;
18013;SDS011;9132;47.946;10.394;2023-03-01T13:38:36;28.93;;;18.20;;
18013;SDS011;9132;47.946;10.394;2023-03-01T13:41:03;26.07;;;17.93;;
18013;SDS011;9132;47.946;10.394;2023-03-01T13:43:30;25.37;;;18.10;;
18013;SDS011;9132;47.946;10.394;2023-03-01T13:45:57;25.33;;;17.93;;
18013;SDS011;9132;47.946;10.394;2023-03-01T13:48:24;25.73;;;16.83;;
18013;SDS011;9132;47.946;10.394;2023-03-01T13:50:53;25.90;;;18.40;;
18013;SDS011;9132;47.946;10.394;2023-03-01T13:53:22;26.67;;;17.80;;
18013;SDS011;9132;47.946;10.394;2023-03-01T13:55:51;27.90;;;17.60;;
18013;SDS011;9132;47.946;10.394;2023-03-01T13:58:20;26.57;;;17.73;;
18013;SDS011;9132;47.946;10.394;2023-03-01T14:00:47;23.20;;;17.43;;
18013;SDS011;9132;47.946;10.394;2023-03-01T14:03:14;24.77;;;17.17;;
18013;SDS011;9132;47.946;10.394;2023-03-01T14:05:41;22.80;;;17.00;;
18013;SDS011;9132;47.946;10.394;2023-03-01T14:08:18;23.83;;;17.17;;
18013;SDS011;9132;47.946;10.394;2023-03-01T14:10:49;24.20;;;17.83;;
18013;SDS011;9132;47.946;10.394;2023-03-01T14:13:21;21.67;;;15.83;;
18013;SDS011;9132;47.946;10.394;2023-03-01T14:15:55;29.73;;;17.93;;
18013;SDS011;9132;47.946;10.394;2023-03-01T14:18:29;25.00;;;17.37;;
18013;SDS011;9132;47.946;10.394;2023-03-01T14:20:59;23.30;;;17.33;;
18013;SDS011;9132;47.946;10.394;2023-03-01T14:23:26;22.83;;;15.97;;
18013;SDS011;9132;47.946;10.394;2023-03-01T14:25:54;24.47;;;16.80;;
18013;SDS011;9132;47.946;10.394;2023-03-01T14:28:22;26.00;;;17.47;;
18013;SDS011;9132;47.946;10.394;2023-03-01T14:30:49;24.20;;;16.43;;